createdAt,value
2019-03-18T00:02:02.530Z,18.60
2019-03-18T00:04:35.399Z,18.60
2019-03-18T00:07:09.564Z,18.60
2019-03-18T00:09:43.015Z,18.60
2019-03-18T00:12:16.095Z,18.70
2019-03-18T00:15:00.460Z,18.60
2019-03-18T00:17:23.545Z,18.70
2019-03-18T00:19:56.111Z,18.70
2019-03-18T00:22:29.334Z,18.70
2019-03-18T00:25:02.252Z,18.70
2019-03-18T00:27:35.707Z,18.70
2019-03-18T00:30:13.703Z,18.70
2019-03-18T00:32:46.902Z,18.70
2019-03-18T00:35:19.985Z,18.70
2019-03-18T00:37:53.462Z,18.80
2019-03-18T00:40:27.051Z,18.80
2019-03-18T00:43:00.549Z,18.80
2019-03-18T00:45:33.500Z,18.80
2019-03-18T00:48:07.105Z,18.80
2019-03-18T00:50:40.777Z,18.80
2019-03-18T00:53:13.607Z,18.80
2019-03-18T00:55:46.619Z,18.80
2019-03-18T00:58:20.467Z,18.90
2019-03-18T01:00:53.477Z,18.90
2019-03-18T01:03:27.323Z,18.90
2019-03-18T01:06:00.280Z,18.90
2019-03-18T01:08:33.554Z,18.90
2019-03-18T01:11:06.849Z,18.90
2019-03-18T01:13:40.089Z,18.90
2019-03-18T01:16:13.131Z,18.90
2019-03-18T01:18:46.334Z,19.00
2019-03-18T01:21:19.774Z,19.00
2019-03-18T01:23:53.991Z,19.00
2019-03-18T01:26:27.063Z,19.00
2019-03-18T01:29:00.553Z,19.10
2019-03-18T01:31:35.155Z,19.10
2019-03-18T01:34:08.586Z,19.10
2019-03-18T01:36:41.532Z,19.20
2019-03-18T01:39:15.304Z,19.20
2019-03-18T01:41:48.258Z,19.20
2019-03-18T01:44:21.450Z,19.20
2019-03-18T01:46:59.200Z,19.20
2019-03-18T01:49:32.893Z,19.20
2019-03-18T01:52:06.179Z,19.20
2019-03-18T01:54:39.266Z,19.20
2019-03-18T01:57:12.359Z,19.20
2019-03-18T01:59:46.066Z,19.20
2019-03-18T02:02:19.051Z,19.20
2019-03-18T02:04:52.570Z,19.30
2019-03-18T02:07:25.512Z,19.30
2019-03-18T02:10:02.790Z,19.30
2019-03-18T02:12:35.577Z,19.30
2019-03-18T02:15:10.966Z,19.30
2019-03-18T02:17:43.857Z,19.30
2019-03-18T02:20:19.629Z,19.30
2019-03-18T02:22:52.794Z,19.20
2019-03-18T02:25:25.850Z,19.30
2019-03-18T02:28:03.456Z,19.30
2019-03-18T02:30:38.367Z,19.30
2019-03-18T02:33:12.085Z,19.30
2019-03-18T02:35:49.203Z,19.30
2019-03-18T02:38:21.829Z,19.30
2019-03-18T02:40:55.229Z,19.40
2019-03-18T02:43:28.288Z,19.30
2019-03-18T02:46:09.956Z,19.30
2019-03-18T02:48:35.908Z,19.40
2019-03-18T02:51:09.226Z,19.30
2019-03-18T02:53:42.217Z,19.40
2019-03-18T02:56:15.622Z,19.50
2019-03-18T02:58:49.014Z,19.50
2019-03-18T03:01:22.162Z,19.60
2019-03-18T03:03:55.660Z,19.60
2019-03-18T03:06:28.859Z,19.50
2019-03-18T03:09:01.927Z,19.50
2019-03-18T03:11:35.250Z,19.60
2019-03-18T03:14:09.044Z,19.60
2019-03-18T03:16:42.157Z,19.70
2019-03-18T03:19:15.602Z,19.70
2019-03-18T03:21:48.458Z,19.70
2019-03-18T03:24:21.321Z,19.70
2019-03-18T03:26:54.397Z,19.80
2019-03-18T03:29:27.223Z,19.80
2019-03-18T03:32:00.050Z,19.80
2019-03-18T03:34:33.171Z,19.80
2019-03-18T03:37:06.239Z,19.80
2019-03-18T03:39:39.676Z,19.80
2019-03-18T03:42:12.424Z,19.90
2019-03-18T03:44:45.650Z,19.90
2019-03-18T03:47:18.859Z,19.90
2019-03-18T03:49:52.751Z,19.90
2019-03-18T03:52:25.861Z,20.00
2019-03-18T03:54:59.457Z,20.00
2019-03-18T03:57:33.371Z,19.90
2019-03-18T04:00:17.594Z,19.90
2019-03-18T04:02:50.854Z,19.80
2019-03-18T04:05:23.843Z,19.80
2019-03-18T04:07:57.080Z,19.80
2019-03-18T04:10:30.082Z,19.80
2019-03-18T04:13:03.120Z,19.80
2019-03-18T04:15:36.888Z,19.80
2019-03-18T04:18:14.718Z,19.80
2019-03-18T04:20:47.846Z,19.80
2019-03-18T04:23:20.729Z,19.80
2019-03-18T04:25:54.052Z,19.80
2019-03-18T04:28:27.489Z,19.80
2019-03-18T04:31:00.549Z,19.90
2019-03-18T04:33:33.464Z,20.10
2019-03-18T04:36:06.605Z,20.20
2019-03-18T04:38:40.345Z,20.40
2019-03-18T04:41:13.307Z,20.50
2019-03-18T04:43:47.640Z,20.70
2019-03-18T04:46:20.527Z,20.80
2019-03-18T04:48:54.438Z,20.90
2019-03-18T04:51:28.607Z,20.90
2019-03-18T04:54:04.277Z,20.90
2019-03-18T04:56:37.585Z,20.90
2019-03-18T04:59:10.329Z,20.80
2019-03-18T05:01:43.544Z,20.70
2019-03-18T05:04:16.394Z,20.70
2019-03-18T05:06:50.605Z,20.60
2019-03-18T05:09:24.206Z,20.50
2019-03-18T05:11:57.699Z,20.50
2019-03-18T05:14:33.792Z,20.50
2019-03-18T05:17:07.156Z,20.50
2019-03-18T05:19:40.108Z,20.50
2019-03-18T05:22:13.233Z,20.50
2019-03-18T05:24:46.333Z,20.50
2019-03-18T05:27:19.471Z,20.50
2019-03-18T05:29:53.886Z,20.50
2019-03-18T05:32:27.825Z,20.50
2019-03-18T05:35:01.084Z,20.60
2019-03-18T05:37:34.082Z,20.50
2019-03-18T05:40:07.768Z,20.50
2019-03-18T05:42:41.898Z,20.40
2019-03-18T05:45:14.991Z,20.40
2019-03-18T05:47:47.936Z,20.40
2019-03-18T05:50:20.909Z,20.40
2019-03-18T05:52:56.923Z,20.40
2019-03-18T05:55:29.663Z,20.40
2019-03-18T05:58:02.968Z,20.40
2019-03-18T06:00:35.787Z,20.30
2019-03-18T06:03:08.768Z,20.30
2019-03-18T06:05:41.595Z,20.30
2019-03-18T06:08:15.100Z,20.30
2019-03-18T06:10:47.909Z,20.20
2019-03-18T06:13:23.408Z,20.20
2019-03-18T06:15:56.243Z,20.10
2019-03-18T06:18:30.884Z,20.10
2019-03-18T06:21:03.571Z,20.10
2019-03-18T06:23:37.199Z,20.10
2019-03-18T06:26:09.918Z,20.10
2019-03-18T06:28:43.326Z,20.10
2019-03-18T06:31:15.968Z,20.10
2019-03-18T06:33:49.122Z,20.00
2019-03-18T06:36:21.784Z,20.00
2019-03-18T06:38:54.406Z,20.00
2019-03-18T06:41:28.743Z,20.00
2019-03-18T06:44:02.032Z,20.00
2019-03-18T06:46:34.869Z,20.00
2019-03-18T06:49:08.594Z,19.90
2019-03-18T06:51:41.505Z,19.90
2019-03-18T06:54:15.864Z,19.90
2019-03-18T06:56:48.808Z,19.90
2019-03-18T06:59:21.824Z,19.90
2019-03-18T07:01:54.839Z,19.90
2019-03-18T07:04:31.852Z,19.90
2019-03-18T07:07:05.525Z,19.90
2019-03-18T07:09:39.218Z,19.90
2019-03-18T07:12:15.682Z,19.90
2019-03-18T07:14:50.102Z,19.80
2019-03-18T07:17:25.735Z,19.80
2019-03-18T07:19:59.069Z,19.80
2019-03-18T07:22:31.941Z,19.80
2019-03-18T07:25:05.156Z,19.80
2019-03-18T07:27:38.360Z,19.80
2019-03-18T07:30:15.522Z,19.80
2019-03-18T07:32:48.244Z,19.70
2019-03-18T07:35:21.267Z,19.70
2019-03-18T07:37:54.444Z,19.70
2019-03-18T07:40:27.199Z,19.70
2019-03-18T07:43:00.221Z,19.70
2019-03-18T07:45:33.522Z,19.70
2019-03-18T07:48:07.088Z,19.70
2019-03-18T07:50:40.537Z,19.70
2019-03-18T07:53:13.891Z,19.70
2019-03-18T07:55:46.816Z,19.60
2019-03-18T07:58:22.427Z,19.60
2019-03-18T08:00:54.926Z,19.70
2019-03-18T08:03:28.716Z,19.70
2019-03-18T08:06:02.305Z,19.70
2019-03-18T08:08:35.539Z,19.70
2019-03-18T08:11:09.694Z,19.70
2019-03-18T08:13:42.657Z,19.70
2019-03-18T08:16:16.261Z,19.70
2019-03-18T08:18:51.954Z,19.70
2019-03-18T08:21:23.575Z,19.70
2019-03-18T08:23:57.078Z,19.70
2019-03-18T08:26:30.560Z,19.70
2019-03-18T08:29:03.485Z,19.70
2019-03-18T08:31:37.672Z,19.70
2019-03-18T08:34:10.357Z,19.70
2019-03-18T08:36:43.840Z,19.70
2019-03-18T08:39:16.705Z,19.70
2019-03-18T08:41:50.025Z,19.70
2019-03-18T08:44:22.712Z,19.80
2019-03-18T08:46:55.842Z,19.80
2019-03-18T08:49:28.368Z,19.80
2019-03-18T08:52:01.564Z,19.80
2019-03-18T08:54:34.605Z,19.90
2019-03-18T08:57:10.933Z,19.90
2019-03-18T08:59:44.449Z,19.90
2019-03-18T09:02:17.719Z,19.90
2019-03-18T09:04:51.650Z,19.90
2019-03-18T09:07:27.799Z,19.90
2019-03-18T09:10:01.157Z,19.80
2019-03-18T09:12:35.457Z,19.80
2019-03-18T09:15:14.549Z,19.80
2019-03-18T09:17:47.654Z,19.80
2019-03-18T09:20:22.536Z,19.80
2019-03-18T09:22:57.150Z,19.80
2019-03-18T09:25:29.690Z,19.80
2019-03-18T09:28:04.917Z,19.80
2019-03-18T09:30:40.756Z,19.80
2019-03-18T09:33:13.962Z,19.70
2019-03-18T09:35:46.869Z,19.70
2019-03-18T09:38:20.148Z,19.70
2019-03-18T09:40:53.436Z,19.60
2019-03-18T09:43:26.825Z,19.60
2019-03-18T09:45:59.996Z,19.60
2019-03-18T09:48:35.656Z,19.60
2019-03-18T09:51:09.773Z,19.60
2019-03-18T09:53:43.137Z,19.50
2019-03-18T09:56:17.154Z,19.60
2019-03-18T09:58:50.022Z,19.50
2019-03-18T10:01:26.600Z,19.50
2019-03-18T10:03:59.951Z,19.50
2019-03-18T10:06:32.776Z,19.50
2019-03-18T10:09:08.222Z,19.40
2019-03-18T10:11:41.582Z,19.40
2019-03-18T10:14:14.726Z,19.40
2019-03-18T10:16:52.990Z,19.40
2019-03-18T10:19:32.994Z,19.40
2019-03-18T10:21:56.803Z,19.40
2019-03-18T10:24:30.008Z,19.40
2019-03-18T10:27:02.921Z,19.40
2019-03-18T10:29:36.304Z,19.40
2019-03-18T10:32:09.247Z,19.40
2019-03-18T10:34:42.703Z,19.40
2019-03-18T10:37:17.050Z,19.30
2019-03-18T10:39:50.139Z,19.30
2019-03-18T10:42:23.132Z,19.30
2019-03-18T10:44:57.065Z,19.30
2019-03-18T10:47:30.097Z,19.30
2019-03-18T10:50:03.002Z,19.30
2019-03-18T10:52:36.400Z,19.30
2019-03-18T10:55:10.799Z,19.30
2019-03-18T10:57:44.071Z,19.20
2019-03-18T11:00:17.698Z,19.20
2019-03-18T11:02:50.998Z,19.20
2019-03-18T11:05:26.705Z,19.20
2019-03-18T11:08:00.618Z,19.20
2019-03-18T11:10:34.898Z,19.10
2019-03-18T11:13:08.294Z,19.20
2019-03-18T11:15:41.420Z,19.20
2019-03-18T11:18:14.992Z,19.20
2019-03-18T11:20:48.882Z,19.20
2019-03-18T11:23:22.734Z,19.20
2019-03-18T11:25:56.093Z,19.20
2019-03-18T11:28:29.918Z,19.10
2019-03-18T11:31:02.824Z,19.10
2019-03-18T11:33:36.136Z,19.10
2019-03-18T11:36:09.621Z,19.10
2019-03-18T11:38:42.772Z,19.10
2019-03-18T11:41:17.611Z,19.10
2019-03-18T11:43:51.187Z,19.10
2019-03-18T11:46:27.400Z,19.10
2019-03-18T11:49:01.320Z,19.10
2019-03-18T11:51:34.454Z,19.10
2019-03-18T11:54:08.701Z,19.10
2019-03-18T11:59:41.695Z,19.10
2019-03-18T11:59:47.046Z,19.10
2019-03-18T12:02:27.749Z,19.10
2019-03-18T12:04:57.853Z,19.10
2019-03-18T12:07:32.066Z,19.10
2019-03-18T12:10:06.125Z,19.10
2019-03-18T12:12:39.212Z,19.10
2019-03-18T12:15:14.277Z,19.10
2019-03-18T12:17:47.539Z,19.20
2019-03-18T12:20:24.683Z,19.10
2019-03-18T12:22:54.928Z,19.10
2019-03-18T12:25:27.848Z,19.10
2019-03-18T12:28:05.012Z,19.20
2019-03-18T12:30:37.350Z,19.10
2019-03-18T12:33:10.453Z,19.10
2019-03-18T12:35:43.531Z,19.20
2019-03-18T12:38:16.372Z,19.20
2019-03-18T12:40:49.469Z,19.20
2019-03-18T12:43:22.436Z,19.10
2019-03-18T12:45:55.942Z,19.20
2019-03-18T12:48:30.673Z,19.20
2019-03-18T12:51:05.752Z,19.10
2019-03-18T12:53:38.727Z,19.10
2019-03-18T12:56:13.933Z,19.20
2019-03-18T12:58:47.070Z,19.10
2019-03-18T13:01:21.413Z,19.10
2019-03-18T13:03:54.787Z,19.10
2019-03-18T13:06:27.533Z,19.20
2019-03-18T13:09:02.431Z,19.20
2019-03-18T13:11:36.118Z,19.20
2019-03-18T13:14:12.550Z,19.20
2019-03-18T13:16:49.324Z,19.20
2019-03-18T13:19:22.717Z,19.20
2019-03-18T13:22:00.598Z,19.20
2019-03-18T13:24:34.174Z,19.20
2019-03-18T13:27:08.936Z,19.20
2019-03-18T13:29:41.909Z,19.20
2019-03-18T13:32:17.227Z,19.20
2019-03-18T13:34:50.199Z,19.20
2019-03-18T13:37:26.038Z,19.20
2019-03-18T13:40:00.431Z,19.20
2019-03-18T13:42:34.471Z,19.20
2019-03-18T13:45:38.881Z,19.20
2019-03-18T13:48:11.271Z,19.20
2019-03-18T13:50:45.221Z,19.20
2019-03-18T13:53:19.740Z,19.20
2019-03-18T13:55:52.545Z,19.20
2019-03-18T13:58:25.761Z,19.20
2019-03-18T14:00:58.894Z,19.20
2019-03-18T14:03:32.475Z,19.20
2019-03-18T14:06:05.774Z,19.20
2019-03-18T14:08:39.626Z,19.20
2019-03-18T14:11:16.196Z,19.20
2019-03-18T14:13:51.708Z,19.20
2019-03-18T14:16:27.143Z,19.20
2019-03-18T14:19:00.224Z,19.20
2019-03-18T14:21:33.712Z,19.20
2019-03-18T14:24:07.330Z,19.20
2019-03-18T14:26:40.364Z,19.30
2019-03-18T14:29:15.478Z,19.20
2019-03-18T14:31:48.837Z,19.20
2019-03-18T14:34:22.048Z,19.20
2019-03-18T14:36:54.697Z,19.20
2019-03-18T14:39:27.490Z,19.20
2019-03-18T14:42:04.528Z,19.20
2019-03-18T14:44:38.694Z,19.30
2019-03-18T14:47:11.553Z,19.20
2019-03-18T14:49:46.359Z,19.30
2019-03-18T14:52:18.656Z,19.30
2019-03-18T14:54:51.590Z,19.20
2019-03-18T14:57:27.476Z,19.20
2019-03-18T15:00:04.511Z,19.20
2019-03-18T15:02:40.299Z,19.20
2019-03-18T15:05:15.985Z,19.20
2019-03-18T15:07:50.197Z,19.20
2019-03-18T15:10:24.545Z,19.20
2019-03-18T15:12:58.392Z,19.20
2019-03-18T15:15:33.751Z,19.20
2019-03-18T15:18:07.051Z,19.20
2019-03-18T15:20:41.264Z,19.20
2019-03-18T15:23:14.437Z,19.20
2019-03-18T15:25:48.066Z,19.20
2019-03-18T15:28:23.219Z,19.20
2019-03-18T15:30:56.732Z,19.20
2019-03-18T15:33:30.905Z,19.20
2019-03-18T15:36:04.395Z,19.20
2019-03-18T15:38:37.615Z,19.20
2019-03-18T15:41:10.842Z,19.20
2019-03-18T15:43:43.811Z,19.20
2019-03-18T15:46:18.318Z,19.30
2019-03-18T15:48:51.362Z,19.20
2019-03-18T15:51:24.946Z,19.30
2019-03-18T15:53:57.794Z,19.30
2019-03-18T15:56:32.191Z,19.30
2019-03-18T15:59:09.227Z,19.30
2019-03-18T16:01:44.814Z,19.20
2019-03-18T16:04:18.414Z,19.30
2019-03-18T16:06:52.451Z,19.30
2019-03-18T16:09:25.545Z,19.20
2019-03-18T16:11:59.385Z,19.30
2019-03-18T16:14:32.611Z,19.30
2019-03-18T16:17:05.564Z,19.30
2019-03-18T16:19:38.725Z,19.20
2019-03-18T16:22:23.025Z,19.30
2019-03-18T16:24:46.391Z,19.30
2019-03-18T16:27:22.577Z,19.30
2019-03-18T16:29:56.185Z,19.30
2019-03-18T16:32:29.423Z,19.20
2019-03-18T16:35:02.669Z,19.20
2019-03-18T16:37:36.236Z,19.20
2019-03-18T16:40:11.258Z,19.20
2019-03-18T16:42:46.295Z,19.20
2019-03-18T16:45:19.694Z,19.20
2019-03-18T16:47:56.202Z,19.20
2019-03-18T16:50:33.985Z,19.20
2019-03-18T16:53:07.731Z,19.10
2019-03-18T16:55:42.649Z,19.10
2019-03-18T16:58:16.594Z,19.10
2019-03-18T17:00:49.473Z,19.10
2019-03-18T17:03:26.245Z,19.20
2019-03-18T17:05:59.345Z,19.10
2019-03-18T17:08:32.484Z,19.10
2019-03-18T17:11:08.007Z,19.10
2019-03-18T17:13:42.215Z,19.10
2019-03-18T17:16:15.074Z,19.10
2019-03-18T17:18:48.345Z,19.10
2019-03-18T17:21:22.331Z,19.10
2019-03-18T17:23:55.723Z,19.10
2019-03-18T17:26:30.195Z,19.10
2019-03-18T17:29:03.947Z,19.10
2019-03-18T17:31:36.693Z,19.10
2019-03-18T17:34:10.540Z,19.10
2019-03-18T17:36:43.279Z,19.10
2019-03-18T17:39:16.679Z,19.10
2019-03-18T17:41:49.527Z,19.10
2019-03-18T17:44:22.959Z,19.10
2019-03-18T17:46:55.949Z,19.20
2019-03-18T17:49:29.305Z,19.20
2019-03-18T17:52:02.297Z,19.20
2019-03-18T17:54:38.284Z,19.10
2019-03-18T17:57:11.398Z,19.10
2019-03-18T17:59:45.430Z,19.20
2019-03-18T18:02:18.619Z,19.10
2019-03-18T18:05:02.795Z,19.20
2019-03-18T18:07:31.221Z,19.10
2019-03-18T18:10:04.440Z,19.10
2019-03-18T18:12:37.327Z,19.20
2019-03-18T18:15:15.034Z,19.20
2019-03-18T18:17:48.130Z,19.20
2019-03-18T18:20:21.042Z,19.20
2019-03-18T18:22:54.136Z,19.20
2019-03-18T18:25:26.901Z,19.10
2019-03-18T18:27:59.823Z,19.20
2019-03-18T18:30:32.922Z,19.10
2019-03-18T18:33:07.938Z,19.10
2019-03-18T18:35:40.958Z,19.20
2019-03-18T18:38:14.333Z,19.10
2019-03-18T18:40:49.496Z,19.10
2019-03-18T18:43:25.469Z,19.20
2019-03-18T18:45:58.237Z,19.20
2019-03-18T18:48:31.955Z,19.20
2019-03-18T18:51:04.610Z,19.20
2019-03-18T18:53:38.020Z,19.20
2019-03-18T18:56:10.601Z,19.20
2019-03-18T18:58:44.135Z,19.20
2019-03-18T19:01:16.933Z,19.20
2019-03-18T19:03:49.868Z,19.10
2019-03-18T19:06:23.063Z,19.20
2019-03-18T19:08:56.651Z,19.20
2019-03-18T19:11:30.458Z,19.20
2019-03-18T19:14:03.384Z,19.10
2019-03-18T19:16:36.534Z,19.20
2019-03-18T19:19:10.749Z,19.10
2019-03-18T19:21:43.806Z,19.20
2019-03-18T19:24:16.553Z,19.20
2019-03-18T19:26:49.719Z,19.20
2019-03-18T19:29:22.557Z,19.20
2019-03-18T19:31:55.523Z,19.20
2019-03-18T19:34:28.735Z,19.10
2019-03-18T19:37:01.528Z,19.20
2019-03-18T19:39:34.962Z,19.10
2019-03-18T19:42:08.039Z,19.10
2019-03-18T19:44:41.314Z,19.20
2019-03-18T19:47:14.689Z,19.20
2019-03-18T19:49:47.739Z,19.10
2019-03-18T19:52:20.718Z,19.10
2019-03-18T19:54:54.735Z,19.20
2019-03-18T19:57:28.481Z,19.10
2019-03-18T20:00:01.481Z,19.20
2019-03-18T20:02:35.910Z,19.20
2019-03-18T20:05:14.922Z,19.10
2019-03-18T20:07:44.162Z,19.10
2019-03-18T20:10:18.515Z,19.20
2019-03-18T20:12:51.816Z,19.20
2019-03-18T20:15:24.774Z,19.10
2019-03-18T20:17:58.029Z,19.20
2019-03-18T20:20:30.959Z,19.20
2019-03-18T20:23:04.014Z,19.10
2019-03-18T20:25:37.263Z,19.20
2019-03-18T20:28:10.265Z,19.20
2019-03-18T20:30:43.203Z,19.20
2019-03-18T20:33:16.419Z,19.20
2019-03-18T20:35:49.561Z,19.10
2019-03-18T20:38:22.244Z,19.20
2019-03-18T20:40:55.214Z,19.20
2019-03-18T20:43:30.075Z,19.10
2019-03-18T20:46:10.273Z,19.10
2019-03-18T20:48:44.130Z,19.10
2019-03-18T20:51:18.189Z,19.10
2019-03-18T20:53:51.990Z,19.10
2019-03-18T20:56:25.360Z,19.20
2019-03-18T20:58:58.918Z,19.10
2019-03-18T21:01:33.511Z,19.10
2019-03-18T21:04:07.219Z,19.20
2019-03-18T21:06:40.372Z,19.10
2019-03-18T21:09:13.891Z,19.10
2019-03-18T21:11:46.846Z,19.10
2019-03-18T21:14:19.800Z,19.20
2019-03-18T21:16:52.775Z,19.10
2019-03-18T21:19:25.787Z,19.10
2019-03-18T21:21:58.993Z,19.20
2019-03-18T21:24:44.077Z,19.20
2019-03-18T21:27:17.795Z,19.20
2019-03-18T21:29:50.604Z,19.10
2019-03-18T21:32:23.355Z,19.10
2019-03-18T21:34:57.120Z,19.10
2019-03-18T21:37:30.088Z,19.10
2019-03-18T21:40:03.170Z,19.10
2019-03-18T21:42:36.127Z,19.20
2019-03-18T21:45:26.058Z,19.10
2019-03-18T21:47:58.792Z,19.10
2019-03-18T21:50:32.131Z,19.20
2019-03-18T21:53:05.128Z,19.10
2019-03-18T21:55:39.037Z,19.10
2019-03-18T21:58:12.108Z,19.20
2019-03-18T22:00:45.757Z,19.10
2019-03-18T22:03:18.411Z,19.20
2019-03-18T22:05:51.323Z,19.10
2019-03-18T22:08:24.237Z,19.10
2019-03-18T22:10:57.418Z,19.10
2019-03-18T22:13:30.321Z,19.20
2019-03-18T22:16:03.345Z,19.20
2019-03-18T22:18:35.980Z,19.20
2019-03-18T22:21:09.112Z,19.20
2019-03-18T22:23:41.883Z,19.20
2019-03-18T22:26:15.384Z,19.20
2019-03-18T22:28:49.256Z,19.20
2019-03-18T22:31:23.827Z,19.20
2019-03-18T22:33:56.894Z,19.20
2019-03-18T22:36:30.724Z,19.20
2019-03-18T22:39:03.694Z,19.20
2019-03-18T22:41:37.172Z,19.20
2019-03-18T22:44:10.336Z,19.20
2019-03-18T22:46:43.336Z,19.20
2019-03-18T22:49:16.486Z,19.20
2019-03-18T22:51:49.763Z,19.20
2019-03-18T22:54:23.084Z,19.20
2019-03-18T22:56:56.315Z,19.20
2019-03-18T22:59:29.899Z,19.20
2019-03-18T23:02:03.414Z,19.20
2019-03-18T23:04:36.691Z,19.20
2019-03-18T23:07:10.266Z,19.20
2019-03-18T23:09:43.175Z,19.20
2019-03-18T23:12:16.146Z,19.20
2019-03-18T23:14:49.084Z,19.20
2019-03-18T23:17:22.204Z,19.20
2019-03-18T23:19:55.057Z,19.30
2019-03-18T23:22:28.287Z,19.30
2019-03-18T23:25:06.957Z,19.30
2019-03-18T23:27:35.982Z,19.30
2019-03-18T23:30:11.359Z,19.30
2019-03-18T23:32:44.287Z,19.30
2019-03-18T23:35:17.381Z,19.30
2019-03-18T23:37:50.266Z,19.30
2019-03-18T23:40:23.514Z,19.30
2019-03-18T23:42:56.471Z,19.30
2019-03-18T23:45:33.382Z,19.30
2019-03-18T23:48:07.256Z,19.30
2019-03-18T23:50:40.487Z,19.30
2019-03-18T23:53:13.797Z,19.30
2019-03-18T23:55:46.843Z,19.30
2019-03-18T23:58:20.109Z,19.30
